sensor_id;sensor_type;location;lat;lon;timestamp;P1;durP1;ratioP1;P2;durP2;ratioP2
16093;SDS011;8151;47.824;12.092;2023-02-15T00:00:23;43.70;;;7.63;;
16093;SDS011;8151;47.824;12.092;2023-02-15T00:02:53;27.77;;;8.40;;
16093;SDS011;8151;47.824;12.092;2023-02-15T00:05:22;14.27;;;8.63;;
16093;SDS011;8151;47.824;12.092;2023-02-15T00:07:50;16.87;;;8.13;;
16093;SDS011;8151;47.824;12.092;2023-02-15T00:10:18;22.50;;;8.30;;
16093;SDS011;8151;47.824;12.092;2023-02-15T00:12:55;32.60;;;8.53;;
16093;SDS011;8151;47.824;12.092;2023-02-15T00:15:23;12.80;;;7.63;;
16093;SDS011;8151;47.824;12.092;2023-02-15T00:17:52;29.80;;;8.87;;
16093;SDS011;8151;47.824;12.092;2023-02-15T00:20:21;14.53;;;8.37;;
16093;SDS011;8151;47.824;12.092;2023-02-15T00:22:49;28.13;;;8.53;;
16093;SDS011;8151;47.824;12.092;2023-02-15T00:25:17;16.53;;;8.00;;
16093;SDS011;8151;47.824;12.092;2023-02-15T00:27:46;17.13;;;8.20;;
16093;SDS011;8151;47.824;12.092;2023-02-15T00:30:16;25.27;;;9.27;;
16093;SDS011;8151;47.824;12.092;2023-02-15T00:32:45;23.00;;;8.37;;
16093;SDS011;8151;47.824;12.092;2023-02-15T00:35:15;22.87;;;8.43;;
16093;SDS011;8151;47.824;12.092;2023-02-15T00:37:44;15.60;;;8.60;;
16093;SDS011;8151;47.824;12.092;2023-02-15T00:40:12;31.90;;;8.97;;
16093;SDS011;8151;47.824;12.092;2023-02-15T00:42:40;24.63;;;8.70;;
16093;SDS011;8151;47.824;12.092;2023-02-15T00:45:09;18.37;;;8.07;;
16093;SDS011;8151;47.824;12.092;2023-02-15T00:47:38;18.50;;;7.83;;
16093;SDS011;8151;47.824;12.092;2023-02-15T00:50:07;23.83;;;7.53;;
16093;SDS011;8151;47.824;12.092;2023-02-15T00:52:36;16.90;;;8.03;;
16093;SDS011;8151;47.824;12.092;2023-02-15T00:55:04;14.77;;;7.83;;
16093;SDS011;8151;47.824;12.092;2023-02-15T00:57:33;15.70;;;8.70;;
16093;SDS011;8151;47.824;12.092;2023-02-15T01:00:02;20.27;;;8.37;;
16093;SDS011;8151;47.824;12.092;2023-02-15T01:02:33;21.53;;;8.23;;
16093;SDS011;8151;47.824;12.092;2023-02-15T01:05:03;16.10;;;8.20;;
16093;SDS011;8151;47.824;12.092;2023-02-15T01:07:32;26.80;;;8.17;;
16093;SDS011;8151;47.824;12.092;2023-02-15T01:10:01;18.43;;;7.70;;
16093;SDS011;8151;47.824;12.092;2023-02-15T01:12:30;13.27;;;7.30;;
16093;SDS011;8151;47.824;12.092;2023-02-15T01:14:58;13.93;;;8.00;;
16093;SDS011;8151;47.824;12.092;2023-02-15T01:17:26;12.10;;;7.57;;
16093;SDS011;8151;47.824;12.092;2023-02-15T01:19:55;12.13;;;7.87;;
16093;SDS011;8151;47.824;12.092;2023-02-15T01:22:25;23.37;;;7.77;;
16093;SDS011;8151;47.824;12.092;2023-02-15T01:24:53;21.33;;;8.10;;
16093;SDS011;8151;47.824;12.092;2023-02-15T01:27:21;21.40;;;7.60;;
16093;SDS011;8151;47.824;12.092;2023-02-15T01:29:50;12.20;;;7.30;;
16093;SDS011;8151;47.824;12.092;2023-02-15T01:32:18;13.83;;;7.70;;
16093;SDS011;8151;47.824;12.092;2023-02-15T01:34:47;19.17;;;7.33;;
16093;SDS011;8151;47.824;12.092;2023-02-15T01:37:17;11.77;;;7.23;;
16093;SDS011;8151;47.824;12.092;2023-02-15T01:39:47;13.23;;;8.00;;
16093;SDS011;8151;47.824;12.092;2023-02-15T01:42:20;11.97;;;7.53;;
16093;SDS011;8151;47.824;12.092;2023-02-15T01:44:50;12.03;;;7.50;;
16093;SDS011;8151;47.824;12.092;2023-02-15T01:47:22;12.10;;;7.33;;
16093;SDS011;8151;47.824;12.092;2023-02-15T01:49:58;16.07;;;7.33;;
16093;SDS011;8151;47.824;12.092;2023-02-15T01:52:31;19.23;;;7.10;;
16093;SDS011;8151;47.824;12.092;2023-02-15T01:55:04;19.40;;;7.77;;
16093;SDS011;8151;47.824;12.092;2023-02-15T01:57:34;13.40;;;7.50;;
16093;SDS011;8151;47.824;12.092;2023-02-15T02:00:03;14.30;;;7.93;;
16093;SDS011;8151;47.824;12.092;2023-02-15T02:02:34;12.57;;;7.23;;
16093;SDS011;8151;47.824;12.092;2023-02-15T02:05:03;20.80;;;7.27;;
16093;SDS011;8151;47.824;12.092;2023-02-15T02:07:35;11.90;;;7.77;;
16093;SDS011;8151;47.824;12.092;2023-02-15T02:10:08;12.07;;;7.27;;
16093;SDS011;8151;47.824;12.092;2023-02-15T02:12:42;13.93;;;7.43;;
16093;SDS011;8151;47.824;12.092;2023-02-15T02:15:13;13.40;;;7.90;;
16093;SDS011;8151;47.824;12.092;2023-02-15T02:17:46;12.17;;;7.03;;
16093;SDS011;8151;47.824;12.092;2023-02-15T02:20:34;11.30;;;7.23;;
16093;SDS011;8151;47.824;12.092;2023-02-15T02:23:29;11.07;;;7.27;;
16093;SDS011;8151;47.824;12.092;2023-02-15T02:26:14;12.50;;;7.47;;
16093;SDS011;8151;47.824;12.092;2023-02-15T02:35:13;9.80;;;6.70;;
16093;SDS011;8151;47.824;12.092;2023-02-15T02:37:46;16.43;;;7.90;;
16093;SDS011;8151;47.824;12.092;2023-02-15T02:40:24;14.00;;;7.73;;
16093;SDS011;8151;47.824;12.092;2023-02-15T02:42:59;10.50;;;7.17;;
16093;SDS011;8151;47.824;12.092;2023-02-15T02:45:32;13.53;;;7.53;;
16093;SDS011;8151;47.824;12.092;2023-02-15T02:48:06;20.70;;;8.17;;
16093;SDS011;8151;47.824;12.092;2023-02-15T02:50:40;14.73;;;8.00;;
16093;SDS011;8151;47.824;12.092;2023-02-15T02:53:09;11.53;;;6.93;;
16093;SDS011;8151;47.824;12.092;2023-02-15T02:55:38;20.63;;;7.10;;
16093;SDS011;8151;47.824;12.092;2023-02-15T02:58:10;10.10;;;7.33;;
16093;SDS011;8151;47.824;12.092;2023-02-15T03:00:45;12.80;;;7.30;;
16093;SDS011;8151;47.824;12.092;2023-02-15T03:03:18;12.10;;;7.53;;
16093;SDS011;8151;47.824;12.092;2023-02-15T03:05:54;11.40;;;7.33;;
16093;SDS011;8151;47.824;12.092;2023-02-15T03:08:27;12.40;;;7.50;;
16093;SDS011;8151;47.824;12.092;2023-02-15T03:11:04;12.03;;;7.43;;
16093;SDS011;8151;47.824;12.092;2023-02-15T03:13:33;11.00;;;7.07;;
16093;SDS011;8151;47.824;12.092;2023-02-15T03:16:09;14.63;;;8.37;;
16093;SDS011;8151;47.824;12.092;2023-02-15T03:18:56;12.23;;;7.83;;
16093;SDS011;8151;47.824;12.092;2023-02-15T03:21:34;11.33;;;6.97;;
16093;SDS011;8151;47.824;12.092;2023-02-15T03:24:07;12.30;;;7.37;;
16093;SDS011;8151;47.824;12.092;2023-02-15T03:26:42;13.73;;;8.00;;
16093;SDS011;8151;47.824;12.092;2023-02-15T03:29:13;13.03;;;7.37;;
16093;SDS011;8151;47.824;12.092;2023-02-15T03:31:44;12.00;;;6.70;;
16093;SDS011;8151;47.824;12.092;2023-02-15T03:34:17;12.17;;;7.50;;
16093;SDS011;8151;47.824;12.092;2023-02-15T03:36:49;9.90;;;7.13;;
16093;SDS011;8151;47.824;12.092;2023-02-15T03:39:22;10.77;;;7.27;;
16093;SDS011;8151;47.824;12.092;2023-02-15T03:41:58;12.37;;;7.40;;
16093;SDS011;8151;47.824;12.092;2023-02-15T03:44:32;13.83;;;7.93;;
16093;SDS011;8151;47.824;12.092;2023-02-15T03:47:08;16.00;;;7.60;;
16093;SDS011;8151;47.824;12.092;2023-02-15T03:49:42;29.43;;;7.87;;
16093;SDS011;8151;47.824;12.092;2023-02-15T03:52:16;13.57;;;7.53;;
16093;SDS011;8151;47.824;12.092;2023-02-15T03:54:44;13.43;;;8.17;;
16093;SDS011;8151;47.824;12.092;2023-02-15T03:57:14;23.13;;;8.13;;
16093;SDS011;8151;47.824;12.092;2023-02-15T04:00:04;14.60;;;7.67;;
16093;SDS011;8151;47.824;12.092;2023-02-15T04:03:00;12.40;;;7.57;;
16093;SDS011;8151;47.824;12.092;2023-02-15T04:05:38;13.17;;;7.50;;
16093;SDS011;8151;47.824;12.092;2023-02-15T04:08:08;24.87;;;8.03;;
16093;SDS011;8151;47.824;12.092;2023-02-15T04:10:37;18.20;;;8.10;;
16093;SDS011;8151;47.824;12.092;2023-02-15T04:13:22;10.67;;;7.47;;
16093;SDS011;8151;47.824;12.092;2023-02-15T04:15:53;12.60;;;7.17;;
16093;SDS011;8151;47.824;12.092;2023-02-15T04:18:31;11.67;;;7.33;;
16093;SDS011;8151;47.824;12.092;2023-02-15T04:21:18;14.23;;;7.83;;
16093;SDS011;8151;47.824;12.092;2023-02-15T04:24:07;10.67;;;7.30;;
16093;SDS011;8151;47.824;12.092;2023-02-15T04:26:53;13.90;;;8.27;;
16093;SDS011;8151;47.824;12.092;2023-02-15T04:29:22;11.40;;;7.33;;
16093;SDS011;8151;47.824;12.092;2023-02-15T04:31:53;25.37;;;8.10;;
16093;SDS011;8151;47.824;12.092;2023-02-15T04:34:23;11.63;;;6.97;;
16093;SDS011;8151;47.824;12.092;2023-02-15T04:36:51;13.43;;;7.50;;
16093;SDS011;8151;47.824;12.092;2023-02-15T04:39:21;12.60;;;7.20;;
16093;SDS011;8151;47.824;12.092;2023-02-15T04:41:50;13.83;;;8.93;;
16093;SDS011;8151;47.824;12.092;2023-02-15T04:44:18;23.93;;;8.03;;
16093;SDS011;8151;47.824;12.092;2023-02-15T04:46:46;11.27;;;6.83;;
16093;SDS011;8151;47.824;12.092;2023-02-15T04:49:15;13.37;;;7.27;;
16093;SDS011;8151;47.824;12.092;2023-02-15T04:51:43;12.80;;;7.80;;
16093;SDS011;8151;47.824;12.092;2023-02-15T04:54:11;13.10;;;7.73;;
16093;SDS011;8151;47.824;12.092;2023-02-15T04:56:41;17.13;;;8.10;;
16093;SDS011;8151;47.824;12.092;2023-02-15T04:59:10;12.20;;;7.83;;
16093;SDS011;8151;47.824;12.092;2023-02-15T05:01:38;14.93;;;8.20;;
16093;SDS011;8151;47.824;12.092;2023-02-15T05:04:07;12.10;;;7.80;;
16093;SDS011;8151;47.824;12.092;2023-02-15T05:06:36;14.57;;;8.40;;
16093;SDS011;8151;47.824;12.092;2023-02-15T05:09:04;13.03;;;8.10;;
16093;SDS011;8151;47.824;12.092;2023-02-15T05:11:33;11.60;;;7.93;;
16093;SDS011;8151;47.824;12.092;2023-02-15T05:14:03;12.27;;;8.07;;
16093;SDS011;8151;47.824;12.092;2023-02-15T05:16:39;12.20;;;7.70;;
16093;SDS011;8151;47.824;12.092;2023-02-15T05:19:07;11.97;;;6.83;;
16093;SDS011;8151;47.824;12.092;2023-02-15T05:21:36;11.70;;;7.30;;
16093;SDS011;8151;47.824;12.092;2023-02-15T05:24:04;12.03;;;7.47;;
16093;SDS011;8151;47.824;12.092;2023-02-15T05:26:54;14.47;;;7.73;;
16093;SDS011;8151;47.824;12.092;2023-02-15T05:29:41;14.27;;;8.20;;
16093;SDS011;8151;47.824;12.092;2023-02-15T05:32:11;15.17;;;7.43;;
16093;SDS011;8151;47.824;12.092;2023-02-15T05:34:41;11.40;;;7.57;;
16093;SDS011;8151;47.824;12.092;2023-02-15T05:37:09;12.10;;;7.33;;
16093;SDS011;8151;47.824;12.092;2023-02-15T05:39:37;12.77;;;7.40;;
16093;SDS011;8151;47.824;12.092;2023-02-15T05:42:06;13.03;;;7.10;;
16093;SDS011;8151;47.824;12.092;2023-02-15T05:44:34;10.70;;;6.20;;
16093;SDS011;8151;47.824;12.092;2023-02-15T05:47:04;12.50;;;7.63;;
16093;SDS011;8151;47.824;12.092;2023-02-15T05:49:34;13.57;;;7.47;;
16093;SDS011;8151;47.824;12.092;2023-02-15T05:52:02;14.07;;;7.60;;
16093;SDS011;8151;47.824;12.092;2023-02-15T05:54:31;12.53;;;8.67;;
16093;SDS011;8151;47.824;12.092;2023-02-15T05:57:00;14.47;;;9.70;;
16093;SDS011;8151;47.824;12.092;2023-02-15T05:59:28;10.70;;;7.30;;
16093;SDS011;8151;47.824;12.092;2023-02-15T06:01:56;13.23;;;6.97;;
16093;SDS011;8151;47.824;12.092;2023-02-15T06:04:26;12.67;;;7.30;;
16093;SDS011;8151;47.824;12.092;2023-02-15T06:06:54;11.87;;;7.27;;
16093;SDS011;8151;47.824;12.092;2023-02-15T06:09:23;15.10;;;9.77;;
16093;SDS011;8151;47.824;12.092;2023-02-15T06:11:51;17.50;;;8.23;;
16093;SDS011;8151;47.824;12.092;2023-02-15T06:14:20;14.50;;;8.50;;
16093;SDS011;8151;47.824;12.092;2023-02-15T06:16:48;12.63;;;8.10;;
16093;SDS011;8151;47.824;12.092;2023-02-15T06:19:16;22.63;;;12.33;;
16093;SDS011;8151;47.824;12.092;2023-02-15T06:21:47;15.33;;;9.23;;
16093;SDS011;8151;47.824;12.092;2023-02-15T06:24:15;17.33;;;10.87;;
16093;SDS011;8151;47.824;12.092;2023-02-15T06:26:43;20.57;;;8.63;;
16093;SDS011;8151;47.824;12.092;2023-02-15T06:29:12;13.90;;;8.00;;
16093;SDS011;8151;47.824;12.092;2023-02-15T06:31:41;16.13;;;7.17;;
16093;SDS011;8151;47.824;12.092;2023-02-15T06:34:09;16.93;;;8.30;;
16093;SDS011;8151;47.824;12.092;2023-02-15T06:36:38;15.53;;;8.80;;
16093;SDS011;8151;47.824;12.092;2023-02-15T06:39:07;27.03;;;7.80;;
16093;SDS011;8151;47.824;12.092;2023-02-15T06:41:36;10.93;;;7.63;;
16093;SDS011;8151;47.824;12.092;2023-02-15T06:44:06;12.53;;;8.07;;
16093;SDS011;8151;47.824;12.092;2023-02-15T06:46:35;12.60;;;7.80;;
16093;SDS011;8151;47.824;12.092;2023-02-15T06:49:04;11.67;;;7.87;;
16093;SDS011;8151;47.824;12.092;2023-02-15T06:51:32;13.83;;;8.93;;
16093;SDS011;8151;47.824;12.092;2023-02-15T06:54:01;16.43;;;8.67;;
16093;SDS011;8151;47.824;12.092;2023-02-15T06:56:31;14.47;;;8.30;;
16093;SDS011;8151;47.824;12.092;2023-02-15T06:58:59;11.53;;;7.00;;
16093;SDS011;8151;47.824;12.092;2023-02-15T07:01:28;10.90;;;7.67;;
16093;SDS011;8151;47.824;12.092;2023-02-15T07:03:56;12.13;;;7.87;;
16093;SDS011;8151;47.824;12.092;2023-02-15T07:06:24;12.27;;;7.87;;
16093;SDS011;8151;47.824;12.092;2023-02-15T07:08:53;14.43;;;8.00;;
16093;SDS011;8151;47.824;12.092;2023-02-15T07:11:21;11.23;;;7.07;;
16093;SDS011;8151;47.824;12.092;2023-02-15T07:14:08;11.40;;;7.17;;
16093;SDS011;8151;47.824;12.092;2023-02-15T07:16:37;14.93;;;8.80;;
16093;SDS011;8151;47.824;12.092;2023-02-15T07:19:06;12.83;;;8.63;;
16093;SDS011;8151;47.824;12.092;2023-02-15T07:21:35;13.83;;;8.40;;
16093;SDS011;8151;47.824;12.092;2023-02-15T07:24:03;21.93;;;13.63;;
16093;SDS011;8151;47.824;12.092;2023-02-15T07:26:32;14.40;;;8.93;;
16093;SDS011;8151;47.824;12.092;2023-02-15T07:29:01;11.30;;;6.73;;
16093;SDS011;8151;47.824;12.092;2023-02-15T07:31:30;12.10;;;6.63;;
16093;SDS011;8151;47.824;12.092;2023-02-15T07:33:59;10.70;;;7.37;;
16093;SDS011;8151;47.824;12.092;2023-02-15T07:36:27;12.90;;;8.73;;
16093;SDS011;8151;47.824;12.092;2023-02-15T07:38:55;12.53;;;7.67;;
16093;SDS011;8151;47.824;12.092;2023-02-15T07:41:24;11.07;;;6.73;;
16093;SDS011;8151;47.824;12.092;2023-02-15T07:43:55;10.10;;;6.60;;
16093;SDS011;8151;47.824;12.092;2023-02-15T07:46:23;8.93;;;6.23;;
16093;SDS011;8151;47.824;12.092;2023-02-15T07:48:53;12.33;;;7.00;;
16093;SDS011;8151;47.824;12.092;2023-02-15T07:51:21;25.50;;;15.53;;
16093;SDS011;8151;47.824;12.092;2023-02-15T07:53:50;10.23;;;8.07;;
16093;SDS011;8151;47.824;12.092;2023-02-15T07:56:22;14.90;;;8.07;;
16093;SDS011;8151;47.824;12.092;2023-02-15T07:58:50;14.37;;;7.03;;
16093;SDS011;8151;47.824;12.092;2023-02-15T08:01:19;16.47;;;8.33;;
16093;SDS011;8151;47.824;12.092;2023-02-15T08:03:52;13.17;;;7.90;;
16093;SDS011;8151;47.824;12.092;2023-02-15T08:06:22;13.73;;;9.00;;
16093;SDS011;8151;47.824;12.092;2023-02-15T08:08:52;11.20;;;8.10;;
16093;SDS011;8151;47.824;12.092;2023-02-15T08:11:21;10.37;;;7.37;;
16093;SDS011;8151;47.824;12.092;2023-02-15T08:13:56;11.03;;;7.60;;
16093;SDS011;8151;47.824;12.092;2023-02-15T08:16:29;13.93;;;8.20;;
16093;SDS011;8151;47.824;12.092;2023-02-15T08:19:01;12.50;;;8.10;;
16093;SDS011;8151;47.824;12.092;2023-02-15T08:21:31;14.33;;;9.10;;
16093;SDS011;8151;47.824;12.092;2023-02-15T08:24:01;16.20;;;9.80;;
16093;SDS011;8151;47.824;12.092;2023-02-15T08:26:30;14.47;;;8.13;;
16093;SDS011;8151;47.824;12.092;2023-02-15T08:29:00;14.07;;;9.17;;
16093;SDS011;8151;47.824;12.092;2023-02-15T08:31:29;13.67;;;8.03;;
16093;SDS011;8151;47.824;12.092;2023-02-15T08:33:57;12.73;;;8.03;;
16093;SDS011;8151;47.824;12.092;2023-02-15T08:36:30;11.20;;;7.30;;
16093;SDS011;8151;47.824;12.092;2023-02-15T08:39:00;11.93;;;7.57;;
16093;SDS011;8151;47.824;12.092;2023-02-15T08:41:30;12.47;;;7.77;;
16093;SDS011;8151;47.824;12.092;2023-02-15T08:44:00;12.33;;;7.97;;
16093;SDS011;8151;47.824;12.092;2023-02-15T08:46:32;11.53;;;7.47;;
16093;SDS011;8151;47.824;12.092;2023-02-15T08:49:02;13.37;;;7.73;;
16093;SDS011;8151;47.824;12.092;2023-02-15T08:51:33;20.40;;;7.93;;
16093;SDS011;8151;47.824;12.092;2023-02-15T08:54:04;12.23;;;8.27;;
16093;SDS011;8151;47.824;12.092;2023-02-15T08:56:34;14.13;;;8.27;;
16093;SDS011;8151;47.824;12.092;2023-02-15T08:59:05;15.37;;;8.23;;
16093;SDS011;8151;47.824;12.092;2023-02-15T09:01:34;11.03;;;7.60;;
16093;SDS011;8151;47.824;12.092;2023-02-15T09:04:04;13.63;;;8.23;;
16093;SDS011;8151;47.824;12.092;2023-02-15T09:06:37;12.13;;;8.30;;
16093;SDS011;8151;47.824;12.092;2023-02-15T09:09:06;13.70;;;8.17;;
16093;SDS011;8151;47.824;12.092;2023-02-15T09:11:35;14.27;;;8.57;;
16093;SDS011;8151;47.824;12.092;2023-02-15T09:14:07;13.80;;;8.80;;
16093;SDS011;8151;47.824;12.092;2023-02-15T09:16:36;14.90;;;9.87;;
16093;SDS011;8151;47.824;12.092;2023-02-15T09:19:06;17.63;;;9.77;;
16093;SDS011;8151;47.824;12.092;2023-02-15T09:21:35;16.90;;;9.60;;
16093;SDS011;8151;47.824;12.092;2023-02-15T09:24:06;15.97;;;9.53;;
16093;SDS011;8151;47.824;12.092;2023-02-15T09:26:41;14.30;;;8.90;;
16093;SDS011;8151;47.824;12.092;2023-02-15T09:29:11;13.23;;;8.60;;
16093;SDS011;8151;47.824;12.092;2023-02-15T09:31:40;25.10;;;16.13;;
16093;SDS011;8151;47.824;12.092;2023-02-15T09:34:11;31.40;;;17.70;;
16093;SDS011;8151;47.824;12.092;2023-02-15T09:36:47;17.53;;;11.97;;
16093;SDS011;8151;47.824;12.092;2023-02-15T09:39:17;15.67;;;10.73;;
16093;SDS011;8151;47.824;12.092;2023-02-15T09:41:51;20.87;;;10.90;;
16093;SDS011;8151;47.824;12.092;2023-02-15T09:44:48;19.90;;;11.47;;
16093;SDS011;8151;47.824;12.092;2023-02-15T09:47:40;18.63;;;9.83;;
16093;SDS011;8151;47.824;12.092;2023-02-15T09:50:33;26.20;;;14.73;;
16093;SDS011;8151;47.824;12.092;2023-02-15T09:53:17;25.27;;;14.47;;
16093;SDS011;8151;47.824;12.092;2023-02-15T09:56:02;17.53;;;10.30;;
16093;SDS011;8151;47.824;12.092;2023-02-15T09:58:40;19.33;;;11.00;;
16093;SDS011;8151;47.824;12.092;2023-02-15T10:01:17;15.67;;;9.87;;
16093;SDS011;8151;47.824;12.092;2023-02-15T10:03:56;26.77;;;11.03;;
16093;SDS011;8151;47.824;12.092;2023-02-15T10:06:35;18.27;;;10.40;;
16093;SDS011;8151;47.824;12.092;2023-02-15T10:09:16;16.63;;;10.17;;
16093;SDS011;8151;47.824;12.092;2023-02-15T10:11:59;13.93;;;8.97;;
16093;SDS011;8151;47.824;12.092;2023-02-15T10:14:40;14.73;;;9.53;;
16093;SDS011;8151;47.824;12.092;2023-02-15T10:17:24;15.07;;;9.80;;
16093;SDS011;8151;47.824;12.092;2023-02-15T10:20:04;20.80;;;9.47;;
16093;SDS011;8151;47.824;12.092;2023-02-15T10:22:50;20.07;;;9.67;;
16093;SDS011;8151;47.824;12.092;2023-02-15T10:25:40;18.07;;;10.77;;
16093;SDS011;8151;47.824;12.092;2023-02-15T10:28:15;16.77;;;10.37;;
16093;SDS011;8151;47.824;12.092;2023-02-15T10:30:46;19.33;;;9.93;;
16093;SDS011;8151;47.824;12.092;2023-02-15T10:33:24;22.07;;;11.40;;
16093;SDS011;8151;47.824;12.092;2023-02-15T10:36:05;13.93;;;8.80;;
16093;SDS011;8151;47.824;12.092;2023-02-15T10:38:45;20.47;;;10.10;;
16093;SDS011;8151;47.824;12.092;2023-02-15T10:41:24;16.00;;;10.17;;
16093;SDS011;8151;47.824;12.092;2023-02-15T10:44:06;13.13;;;8.53;;
16093;SDS011;8151;47.824;12.092;2023-02-15T10:46:52;15.53;;;9.40;;
16093;SDS011;8151;47.824;12.092;2023-02-15T10:49:34;14.40;;;9.20;;
16093;SDS011;8151;47.824;12.092;2023-02-15T10:52:18;12.47;;;8.57;;
16093;SDS011;8151;47.824;12.092;2023-02-15T10:54:55;13.17;;;8.70;;
16093;SDS011;8151;47.824;12.092;2023-02-15T10:57:37;16.10;;;9.03;;
16093;SDS011;8151;47.824;12.092;2023-02-15T11:00:17;15.93;;;9.57;;
16093;SDS011;8151;47.824;12.092;2023-02-15T11:02:57;18.30;;;9.00;;
16093;SDS011;8151;47.824;12.092;2023-02-15T11:05:45;21.60;;;9.03;;
16093;SDS011;8151;47.824;12.092;2023-02-15T11:08:25;14.73;;;8.37;;
16093;SDS011;8151;47.824;12.092;2023-02-15T11:10:58;12.07;;;8.33;;
16093;SDS011;8151;47.824;12.092;2023-02-15T11:13:32;19.40;;;8.47;;
16093;SDS011;8151;47.824;12.092;2023-02-15T11:16:07;15.40;;;8.90;;
16093;SDS011;8151;47.824;12.092;2023-02-15T11:18:41;14.77;;;9.00;;
16093;SDS011;8151;47.824;12.092;2023-02-15T11:21:13;13.93;;;9.00;;
16093;SDS011;8151;47.824;12.092;2023-02-15T11:23:48;12.73;;;8.90;;
16093;SDS011;8151;47.824;12.092;2023-02-15T11:26:19;11.87;;;8.40;;
16093;SDS011;8151;47.824;12.092;2023-02-15T11:28:57;15.87;;;8.00;;
16093;SDS011;8151;47.824;12.092;2023-02-15T11:31:31;11.43;;;8.83;;
16093;SDS011;8151;47.824;12.092;2023-02-15T11:34:11;11.53;;;7.93;;
16093;SDS011;8151;47.824;12.092;2023-02-15T11:36:45;11.90;;;8.20;;
16093;SDS011;8151;47.824;12.092;2023-02-15T11:39:18;24.70;;;15.03;;
16093;SDS011;8151;47.824;12.092;2023-02-15T11:41:50;12.77;;;8.63;;
16093;SDS011;8151;47.824;12.092;2023-02-15T11:44:23;12.87;;;8.43;;
16093;SDS011;8151;47.824;12.092;2023-02-15T11:46:55;14.07;;;8.00;;
16093;SDS011;8151;47.824;12.092;2023-02-15T11:49:25;13.33;;;7.50;;
16093;SDS011;8151;47.824;12.092;2023-02-15T11:51:57;12.83;;;7.50;;
16093;SDS011;8151;47.824;12.092;2023-02-15T11:54:28;11.60;;;7.23;;
16093;SDS011;8151;47.824;12.092;2023-02-15T11:56:59;11.50;;;7.73;;
16093;SDS011;8151;47.824;12.092;2023-02-15T11:59:34;10.90;;;7.13;;
16093;SDS011;8151;47.824;12.092;2023-02-15T12:02:11;12.33;;;8.10;;
16093;SDS011;8151;47.824;12.092;2023-02-15T12:04:46;10.77;;;7.37;;
16093;SDS011;8151;47.824;12.092;2023-02-15T12:07:21;7.87;;;6.07;;
16093;SDS011;8151;47.824;12.092;2023-02-15T12:09:54;11.87;;;6.53;;
16093;SDS011;8151;47.824;12.092;2023-02-15T12:12:32;9.67;;;6.57;;
16093;SDS011;8151;47.824;12.092;2023-02-15T12:15:03;9.13;;;6.37;;
16093;SDS011;8151;47.824;12.092;2023-02-15T12:17:33;10.13;;;6.53;;
16093;SDS011;8151;47.824;12.092;2023-02-15T12:20:06;11.27;;;6.17;;
16093;SDS011;8151;47.824;12.092;2023-02-15T12:22:53;12.07;;;6.73;;
16093;SDS011;8151;47.824;12.092;2023-02-15T12:25:29;11.87;;;7.47;;
16093;SDS011;8151;47.824;12.092;2023-02-15T12:28:03;9.30;;;6.47;;
16093;SDS011;8151;47.824;12.092;2023-02-15T12:30:46;14.30;;;7.83;;
16093;SDS011;8151;47.824;12.092;2023-02-15T12:33:15;26.87;;;12.70;;
16093;SDS011;8151;47.824;12.092;2023-02-15T12:35:54;18.17;;;9.90;;
16093;SDS011;8151;47.824;12.092;2023-02-15T12:38:26;8.40;;;6.43;;
16093;SDS011;8151;47.824;12.092;2023-02-15T12:40:56;14.90;;;8.87;;
16093;SDS011;8151;47.824;12.092;2023-02-15T12:43:27;8.30;;;6.67;;
16093;SDS011;8151;47.824;12.092;2023-02-15T12:46:14;10.30;;;6.27;;
16093;SDS011;8151;47.824;12.092;2023-02-15T12:49:04;14.60;;;8.37;;
16093;SDS011;8151;47.824;12.092;2023-02-15T12:51:45;10.63;;;8.67;;
16093;SDS011;8151;47.824;12.092;2023-02-15T12:54:16;15.27;;;9.87;;
16093;SDS011;8151;47.824;12.092;2023-02-15T12:56:56;9.43;;;6.87;;
16093;SDS011;8151;47.824;12.092;2023-02-15T12:59:34;8.60;;;6.83;;
16093;SDS011;8151;47.824;12.092;2023-02-15T13:02:05;11.70;;;7.40;;
16093;SDS011;8151;47.824;12.092;2023-02-15T13:04:47;23.40;;;14.30;;
16093;SDS011;8151;47.824;12.092;2023-02-15T13:07:17;24.80;;;16.23;;
16093;SDS011;8151;47.824;12.092;2023-02-15T13:09:46;10.43;;;7.90;;
16093;SDS011;8151;47.824;12.092;2023-02-15T13:12:17;10.43;;;7.43;;
16093;SDS011;8151;47.824;12.092;2023-02-15T13:14:49;9.40;;;5.73;;
16093;SDS011;8151;47.824;12.092;2023-02-15T13:17:23;9.00;;;6.10;;
16093;SDS011;8151;47.824;12.092;2023-02-15T13:19:57;7.00;;;5.83;;
16093;SDS011;8151;47.824;12.092;2023-02-15T13:22:33;7.90;;;6.07;;
16093;SDS011;8151;47.824;12.092;2023-02-15T13:25:13;7.90;;;6.27;;
16093;SDS011;8151;47.824;12.092;2023-02-15T13:27:48;9.57;;;5.87;;
16093;SDS011;8151;47.824;12.092;2023-02-15T13:30:22;9.27;;;5.90;;
16093;SDS011;8151;47.824;12.092;2023-02-15T13:32:55;8.43;;;5.53;;
16093;SDS011;8151;47.824;12.092;2023-02-15T13:35:29;15.47;;;9.53;;
16093;SDS011;8151;47.824;12.092;2023-02-15T13:38:07;17.23;;;12.57;;
16093;SDS011;8151;47.824;12.092;2023-02-15T13:40:48;12.43;;;8.33;;
16093;SDS011;8151;47.824;12.092;2023-02-15T13:43:27;7.53;;;5.80;;
16093;SDS011;8151;47.824;12.092;2023-02-15T13:46:07;12.97;;;8.07;;
16093;SDS011;8151;47.824;12.092;2023-02-15T13:48:49;7.67;;;5.60;;
16093;SDS011;8151;47.824;12.092;2023-02-15T13:51:25;7.47;;;5.60;;
16093;SDS011;8151;47.824;12.092;2023-02-15T13:54:07;6.80;;;5.37;;
16093;SDS011;8151;47.824;12.092;2023-02-15T13:56:53;9.63;;;6.57;;
16093;SDS011;8151;47.824;12.092;2023-02-15T13:59:42;8.57;;;6.10;;
16093;SDS011;8151;47.824;12.092;2023-02-15T14:02:32;6.70;;;5.23;;
16093;SDS011;8151;47.824;12.092;2023-02-15T14:05:17;7.53;;;5.47;;
16093;SDS011;8151;47.824;12.092;2023-02-15T14:08:08;6.63;;;5.50;;
16093;SDS011;8151;47.824;12.092;2023-02-15T14:10:46;9.07;;;5.50;;
16093;SDS011;8151;47.824;12.092;2023-02-15T14:16:26;8.27;;;5.87;;
16093;SDS011;8151;47.824;12.092;2023-02-15T14:19:05;12.10;;;5.30;;
16093;SDS011;8151;47.824;12.092;2023-02-15T14:21:44;10.07;;;5.57;;
16093;SDS011;8151;47.824;12.092;2023-02-15T14:24:18;8.10;;;5.40;;
16093;SDS011;8151;47.824;12.092;2023-02-15T14:26:56;8.23;;;5.40;;
16093;SDS011;8151;47.824;12.092;2023-02-15T14:29:38;7.00;;;5.37;;
16093;SDS011;8151;47.824;12.092;2023-02-15T14:32:15;7.00;;;6.10;;
16093;SDS011;8151;47.824;12.092;2023-02-15T14:34:50;9.40;;;5.80;;
16093;SDS011;8151;47.824;12.092;2023-02-15T14:37:26;7.27;;;5.90;;
16093;SDS011;8151;47.824;12.092;2023-02-15T14:40:03;7.33;;;5.43;;
16093;SDS011;8151;47.824;12.092;2023-02-15T14:42:56;8.70;;;5.70;;
16093;SDS011;8151;47.824;12.092;2023-02-15T14:45:29;7.67;;;5.67;;
16093;SDS011;8151;47.824;12.092;2023-02-15T14:48:10;8.50;;;6.00;;
16093;SDS011;8151;47.824;12.092;2023-02-15T14:50:44;11.17;;;5.93;;
16093;SDS011;8151;47.824;12.092;2023-02-15T14:53:15;11.40;;;6.27;;
16093;SDS011;8151;47.824;12.092;2023-02-15T14:56:04;9.30;;;5.70;;
16093;SDS011;8151;47.824;12.092;2023-02-15T14:58:35;10.30;;;6.40;;
16093;SDS011;8151;47.824;12.092;2023-02-15T15:01:04;8.37;;;5.47;;
16093;SDS011;8151;47.824;12.092;2023-02-15T15:03:35;10.47;;;6.10;;
16093;SDS011;8151;47.824;12.092;2023-02-15T15:06:19;10.10;;;6.17;;
16093;SDS011;8151;47.824;12.092;2023-02-15T15:08:53;9.13;;;6.97;;
16093;SDS011;8151;47.824;12.092;2023-02-15T15:11:37;14.47;;;9.40;;
16093;SDS011;8151;47.824;12.092;2023-02-15T15:14:13;13.87;;;9.47;;
16093;SDS011;8151;47.824;12.092;2023-02-15T15:17:09;10.37;;;7.33;;
16093;SDS011;8151;47.824;12.092;2023-02-15T15:19:57;10.77;;;7.20;;
16093;SDS011;8151;47.824;12.092;2023-02-15T15:22:26;10.50;;;5.83;;